Sylvan Grove, KS (67481)

10:15 PM CST on January 24, 2015 (GMT -0600)
Craven / Shiroky Farm | Change Station
CLOSE
Current Station
Personal Weather Station
Location: Luray, KS
Elevation: 1730 ft
Nearby Weather Stations
Active Advisory: Wind Advisory

Elev 1730 ft 39.02 °N, 98.67 °W | Updated 21 seconds ago

Overcast
Overcast
46.4 °F
Feels Like 41 °F
N
12.0
Wind Variable Wind from WNW
Gusts 13.0 mph

Today
High -- | Low -- °F
--% Chance of Precip.
Yesterday
High -- | Low -- °F
Precip. -- in
7:46 AM 5:45 PM
Waxing Crescent, 28% visible
Pressure 29.83 in
Visibility 10.0 miles
Clouds Mostly Cloudy 9000 ft
Overcast 11000 ft
Windchill 41 °F
Dew Point 38 °F
Humidity 72%
Rainfall 0.02 in
Snow Depth Not available.
UV 0 out of 12
Pollen .50 out of 12
Air Quality Not available.
Flu Activity Not available.
METAR KRSL 250353Z AUTO 29013KT 10SM BKN090 OVC110 09/03 A2980 RMK AO2 RAB0255E07 SLP099 P0000 T00890033

More Conditions Fewer Conditions

Pressure 29.83 in
Visibility 10.0 miles
Clouds Mostly Cloudy 9000 ft
Overcast 11000 ft
Windchill 41 °F
Dew Point 38 °F
Humidity 72%
Rainfall 0.02 in
Snow Depth Not available.
UV 0 out of 12
Pollen .50 out of 12
Air Quality Not available.
Flu Activity Not available.
METAR KRSL 250353Z AUTO 29013KT 10SM BKN090 OVC110 09/03 A2980 RMK AO2 RAB0255E07 SLP099 P0000 T00890033

More Conditions Fewer Conditions

10-Day Weather Forecast

Almanac

Astronomy

Jan. 24, 2015 Rise Set
Actual Time
Civil Twilight
Nautical Twilight
Astronomical Twilight
Moon
Length of Visible Light
Length of Day
Tomorrow will be .
, % of the Moon is Illuminated

Today's Extremes

State Highs State Lows

Community

WunderPhotos

Upload Photos

1,789,838 photos uploaded!

WunderBlogs® & News

Nearby

Air Quality

  Air Quality AQ Index Pollutant
Not available.

Snow Depth

Station Depth Elevation

Earthquake Activity

City Distance Mag. Time & Date
Minimum magnitude displayed is 2.5.

Coastal Water Temperatures

Place Temperature

Nearby Weather Stations